الصفحة الرئيسية
METAR-TAF:

METAR-TAF

مطار :

Alert, نونافوت, كندا

دائرة عرض: 82-31N, خط طول: 062-17W, ارتفاع: 31 متر

مراقبة الطقس الحالي

تاريخ ووقت الإصدار 43 دقيقة قبل الساعة 17:00UTC
ريح 9 عقدة من الجنوب
درجة الحرارة -26°درجة مئوية
الرطوبة 76%
ضغط 1041 hPa
الرؤية: 24.1 كم
سماء صافية

METAR: CYLT 261700Z 19009KT 15SM SKC M26/M29 A3074 RMK SLP415

زمن: 12:43 (17:43 UTC)

توقعات

تاريخ ووقت الإصدار 13 دقيقة قبل الساعة 17:30UTC
التوقعات صالحة من26 الساعة 18 UTC إلى 27 الساعة 06 UTC
ريح 8 عقدة من الجنوب
الرؤية: 10 كم
غيوم قليلة على ارتفاع 4000 قدم
أصبح
من 27 الساعة 04 UTC إلى 27 الساعة 06 UTC
ريح 8 عقدة من الغرب/الجنوب الغربي

TAF: CYLT 261730Z 2618/2706 19008KT P6SM FEW040 BECMG 2704/2706 25008KT RMK NXT FCST BY 270000Z

أرصاد الطقس والتوقعات من أكثر من 4000 مطار (تقارير الطقس للمطار METAR والتنبؤ بالطقس بالمطارTAF).

المحطات المتاحة هي النقط الصفراء والحمراء على الخريطة.

حرك المؤشر فوق النقطة لمعرفة اسم المحطة.

ثم انقر لمعرفة أرصاد وتوقعات الطقس.

لتغيير الخارطة: اضغط على الأزرار الخضراء مع رمز الصليب الأسود للتكبير. على الزر الأخضر مع شرطة للتصغير، أو على الأسهم الخضراء للخرائط المجاورة.


METAR-TAF: